createdAt,value
2017-09-19T00:00:34.396Z,23.90
2017-09-19T00:03:04.621Z,24.53
2017-09-19T00:05:36.295Z,25.10
2017-09-19T00:08:06.769Z,23.20
2017-09-19T00:10:37.645Z,26.60
2017-09-19T00:13:08.362Z,23.77
2017-09-19T00:15:40.381Z,25.97
2017-09-19T00:18:11.851Z,25.87
2017-09-19T00:20:42.582Z,23.00
2017-09-19T00:23:13.930Z,25.20
2017-09-19T00:25:44.963Z,26.93
2017-09-19T00:28:15.312Z,30.27
2017-09-19T00:30:46.257Z,26.90
2017-09-19T00:33:18.272Z,29.47
2017-09-19T00:35:49.030Z,25.80
2017-09-19T00:38:19.842Z,29.17
2017-09-19T00:40:51.561Z,25.97
2017-09-19T00:43:22.910Z,26.57
2017-09-19T00:45:54.570Z,25.87
2017-09-19T00:48:25.044Z,19.50
2017-09-19T00:50:56.538Z,24.50
2017-09-19T00:53:27.044Z,20.10
2017-09-19T00:55:57.975Z,19.60
2017-09-19T00:58:28.697Z,23.37
2017-09-19T01:00:59.771Z,21.07
2017-09-19T01:03:30.399Z,19.10
2017-09-19T01:06:01.040Z,20.00
2017-09-19T01:08:31.295Z,21.20
2017-09-19T01:11:03.061Z,17.47
2017-09-19T01:13:33.721Z,15.00
2017-09-19T01:16:04.802Z,14.10
2017-09-19T01:18:35.565Z,19.00
2017-09-19T01:21:05.941Z,17.70
2017-09-19T01:23:36.420Z,16.73
2017-09-19T01:26:07.387Z,17.03
2017-09-19T01:28:39.291Z,14.43
2017-09-19T01:31:10.117Z,15.97
2017-09-19T01:33:41.353Z,20.03
2017-09-19T01:36:12.041Z,17.40
2017-09-19T01:38:42.413Z,19.23
2017-09-19T01:41:12.849Z,20.70
2017-09-19T01:43:43.702Z,17.00
2017-09-19T01:46:14.736Z,14.93
2017-09-19T01:48:46.293Z,17.97
2017-09-19T01:51:18.287Z,19.30
2017-09-19T01:53:49.993Z,20.00
2017-09-19T01:56:21.674Z,17.47
2017-09-19T01:58:55.675Z,14.50
2017-09-19T02:01:26.665Z,23.03
2017-09-19T02:03:57.545Z,23.93
2017-09-19T02:06:28.210Z,16.90
2017-09-19T02:08:59.066Z,23.67
2017-09-19T02:11:29.960Z,18.50
2017-09-19T02:14:02.197Z,29.93
2017-09-19T02:16:33.780Z,17.80
2017-09-19T02:19:04.780Z,27.40
2017-09-19T02:21:35.398Z,17.80
2017-09-19T02:24:07.676Z,25.13
2017-09-19T02:26:38.402Z,27.90
2017-09-19T02:29:09.293Z,26.13
2017-09-19T02:31:40.951Z,22.00
2017-09-19T02:34:12.392Z,25.23
2017-09-19T02:36:43.024Z,20.80
2017-09-19T02:39:14.216Z,26.57
2017-09-19T02:41:45.534Z,27.50
2017-09-19T02:44:16.251Z,30.40
2017-09-19T02:46:46.794Z,27.70
2017-09-19T02:49:17.558Z,27.27
2017-09-19T02:51:48.709Z,22.67
2017-09-19T02:54:19.209Z,31.47
2017-09-19T02:56:50.027Z,28.50
2017-09-19T02:59:22.031Z,31.93
2017-09-19T03:01:52.994Z,23.00
2017-09-19T03:04:23.789Z,28.40
2017-09-19T03:06:56.740Z,22.67
2017-09-19T03:09:27.390Z,19.80
2017-09-19T03:11:57.846Z,25.47
2017-09-19T03:14:29.093Z,22.03
2017-09-19T03:17:00.545Z,28.37
2017-09-19T03:19:31.456Z,25.97
2017-09-19T03:22:02.288Z,20.77
2017-09-19T03:24:33.893Z,22.30
2017-09-19T03:27:04.401Z,26.67
2017-09-19T03:29:35.305Z,28.57
2017-09-19T03:32:06.552Z,20.50
2017-09-19T03:34:37.569Z,22.33
2017-09-19T03:37:08.290Z,24.73
2017-09-19T03:39:40.409Z,25.60
2017-09-19T03:42:11.015Z,24.70
2017-09-19T03:44:43.330Z,21.17
2017-09-19T03:47:14.623Z,23.70
2017-09-19T03:49:45.831Z,28.93
2017-09-19T03:52:16.549Z,18.40
2017-09-19T03:54:47.259Z,25.63
2017-09-19T03:57:17.674Z,28.47
2017-09-19T03:59:48.628Z,24.70
2017-09-19T04:02:19.589Z,30.20
2017-09-19T04:04:50.675Z,28.77
2017-09-19T04:07:22.653Z,26.83
2017-09-19T04:09:53.978Z,25.40
2017-09-19T04:12:25.448Z,24.07
2017-09-19T04:14:56.990Z,20.37
2017-09-19T04:17:27.722Z,26.93
2017-09-19T04:20:00.438Z,29.50
2017-09-19T04:22:31.288Z,25.67
2017-09-19T04:25:02.493Z,31.00
2017-09-19T04:27:34.241Z,31.73
2017-09-19T04:30:04.978Z,33.17
2017-09-19T04:32:36.641Z,27.53
2017-09-19T04:35:07.705Z,31.90
2017-09-19T04:37:38.498Z,29.87
2017-09-19T04:40:09.238Z,29.87
2017-09-19T04:42:40.637Z,31.40
2017-09-19T04:45:12.800Z,30.83
2017-09-19T04:47:43.125Z,28.20
2017-09-19T04:50:14.050Z,23.10
2017-09-19T04:52:44.857Z,25.07
2017-09-19T04:55:16.461Z,26.63
2017-09-19T04:57:47.093Z,28.10
2017-09-19T05:00:18.025Z,19.20
2017-09-19T05:02:49.537Z,29.37
2017-09-19T05:05:20.005Z,29.77
2017-09-19T05:07:50.549Z,17.27
2017-09-19T05:10:21.545Z,24.37
2017-09-19T05:12:51.976Z,29.83
2017-09-19T05:15:22.574Z,23.63
2017-09-19T05:17:53.133Z,26.87
2017-09-19T05:20:23.910Z,23.23
2017-09-19T05:25:30.429Z,23.50
2017-09-19T05:28:01.778Z,25.30
2017-09-19T05:30:32.122Z,17.83
2017-09-19T05:33:04.038Z,29.57
2017-09-19T05:35:34.607Z,18.93
2017-09-19T05:38:05.188Z,22.23
2017-09-19T05:40:35.639Z,18.70
2017-09-19T05:43:06.093Z,22.27
2017-09-19T05:45:36.517Z,19.47
2017-09-19T05:48:07.045Z,21.93
2017-09-19T05:50:37.517Z,19.80
2017-09-19T05:53:08.796Z,24.60
2017-09-19T05:55:40.309Z,21.17
2017-09-19T05:58:10.733Z,21.60
2017-09-19T06:00:41.200Z,17.87
2017-09-19T06:03:11.650Z,28.70
2017-09-19T06:05:42.425Z,23.87
2017-09-19T06:08:12.920Z,25.00
2017-09-19T06:10:44.704Z,20.00
2017-09-19T06:13:15.206Z,23.97
2017-09-19T06:15:45.582Z,23.43
2017-09-19T06:18:16.251Z,21.20
2017-09-19T06:20:47.768Z,22.03
2017-09-19T06:23:18.308Z,22.43
2017-09-19T06:25:48.758Z,26.70
2017-09-19T06:28:19.665Z,24.63
2017-09-19T06:30:50.097Z,25.50
2017-09-19T06:33:20.674Z,28.17
2017-09-19T06:35:51.215Z,26.37
2017-09-19T06:38:21.614Z,29.63
2017-09-19T06:40:53.266Z,27.70
2017-09-19T06:43:24.304Z,28.70
2017-09-19T06:45:55.057Z,25.37
2017-09-19T06:48:25.504Z,29.93
2017-09-19T06:50:55.848Z,24.70
2017-09-19T06:53:26.465Z,21.50
2017-09-19T06:55:57.174Z,23.80
2017-09-19T06:58:28.393Z,32.37
2017-09-19T07:00:59.752Z,21.60
2017-09-19T07:03:31.733Z,30.93
2017-09-19T07:06:02.382Z,32.77
2017-09-19T07:08:33.692Z,33.03
2017-09-19T07:11:04.521Z,28.70
2017-09-19T07:13:35.779Z,28.53
2017-09-19T07:16:06.570Z,31.30
2017-09-19T07:18:38.209Z,30.33
2017-09-19T07:23:35.105Z,27.97
2017-09-19T07:26:06.043Z,28.30
2017-09-19T07:28:37.032Z,29.57
2017-09-19T07:31:07.740Z,28.40
2017-09-19T07:33:38.290Z,29.90
2017-09-19T07:36:08.751Z,26.80
2017-09-19T07:38:39.232Z,27.37
2017-09-19T07:41:09.732Z,28.13
2017-09-19T07:43:40.097Z,29.03
2017-09-19T07:46:10.966Z,30.43
2017-09-19T07:48:41.429Z,24.83
2017-09-19T07:51:11.873Z,27.63
2017-09-19T07:53:42.435Z,30.20
2017-09-19T07:56:12.965Z,29.50
2017-09-19T07:58:43.327Z,25.47
2017-09-19T08:01:14.041Z,28.47
2017-09-19T08:03:44.385Z,26.60
2017-09-19T08:06:15.533Z,24.23
2017-09-19T08:08:46.258Z,26.27
2017-09-19T08:11:18.067Z,23.07
2017-09-19T08:13:48.521Z,24.80
2017-09-19T08:16:18.833Z,24.53
2017-09-19T08:18:49.399Z,23.97
2017-09-19T08:21:20.053Z,25.20
2017-09-19T08:23:50.519Z,29.70
2017-09-19T08:26:21.104Z,24.93
2017-09-19T08:28:52.361Z,26.07
2017-09-19T08:31:22.730Z,25.13
2017-09-19T08:33:53.153Z,22.97
2017-09-19T08:36:23.892Z,25.47
2017-09-19T08:38:54.348Z,23.27
2017-09-19T08:41:24.667Z,20.97
2017-09-19T08:43:56.208Z,21.57
2017-09-19T08:46:26.801Z,23.07
2017-09-19T08:48:57.134Z,23.17
2017-09-19T08:51:27.699Z,20.77
2017-09-19T08:53:58.212Z,21.60
2017-09-19T08:56:28.705Z,20.90
2017-09-19T08:59:01.289Z,21.87
2017-09-19T09:01:31.912Z,23.80
2017-09-19T09:04:02.245Z,22.43
2017-09-19T09:06:33.408Z,21.60
2017-09-19T09:09:05.213Z,20.60
2017-09-19T09:11:35.782Z,23.20
2017-09-19T09:14:06.290Z,22.20
2017-09-19T09:16:36.920Z,20.30
2017-09-19T09:19:07.396Z,19.70
2017-09-19T09:21:37.898Z,21.13
2017-09-19T09:24:09.013Z,20.23
2017-09-19T09:26:39.486Z,20.60
2017-09-19T09:29:09.968Z,22.17
2017-09-19T09:31:40.857Z,21.07
2017-09-19T09:34:11.358Z,18.00
2017-09-19T09:36:41.664Z,23.17
2017-09-19T09:39:12.512Z,21.40
2017-09-19T09:41:42.928Z,20.47
2017-09-19T09:44:13.469Z,21.60
2017-09-19T09:46:43.984Z,20.03
2017-09-19T09:49:14.700Z,20.10
2017-09-19T09:51:46.048Z,22.00
2017-09-19T09:54:16.439Z,22.90
2017-09-19T09:56:47.169Z,22.13
2017-09-19T09:59:17.488Z,20.63
2017-09-19T10:01:48.094Z,20.70
2017-09-19T10:04:18.619Z,22.73
2017-09-19T10:06:49.418Z,21.67
2017-09-19T10:09:20.581Z,21.23
2017-09-19T10:11:51.086Z,21.50
2017-09-19T10:14:22.582Z,20.37
2017-09-19T10:16:53.034Z,19.60
2017-09-19T10:19:23.353Z,19.07
2017-09-19T10:21:54.261Z,20.30
2017-09-19T10:24:24.652Z,18.80
2017-09-19T10:26:55.113Z,18.10
2017-09-19T10:29:25.742Z,21.93
2017-09-19T10:31:56.192Z,19.90
2017-09-19T10:34:26.533Z,19.43
2017-09-19T10:36:57.293Z,20.33
2017-09-19T10:39:28.635Z,20.87
2017-09-19T10:41:59.720Z,20.53
2017-09-19T10:44:30.344Z,19.00
2017-09-19T10:47:00.957Z,19.73
2017-09-19T10:49:31.495Z,20.47
2017-09-19T10:52:02.433Z,19.30
2017-09-19T10:54:32.833Z,19.13
2017-09-19T10:57:04.089Z,18.73
2017-09-19T10:59:34.685Z,17.87
2017-09-19T11:02:05.631Z,16.67
2017-09-19T11:04:36.939Z,18.60
2017-09-19T11:07:07.438Z,16.80
2017-09-19T11:09:38.274Z,15.20
2017-09-19T11:12:08.917Z,16.67
2017-09-19T11:14:39.379Z,15.87
2017-09-19T11:17:10.301Z,17.70
2017-09-19T11:19:41.958Z,16.70
2017-09-19T11:22:12.556Z,16.70
2017-09-19T11:24:42.893Z,17.50
2017-09-19T11:27:13.345Z,17.50
2017-09-19T11:29:43.857Z,13.90
2017-09-19T11:32:14.712Z,15.90
2017-09-19T11:34:45.354Z,14.60
2017-09-19T11:37:15.884Z,15.90
2017-09-19T11:39:46.548Z,14.10
2017-09-19T11:42:18.065Z,14.50
2017-09-19T11:44:48.544Z,14.50
2017-09-19T11:47:19.069Z,14.03
2017-09-19T11:49:50.299Z,14.47
2017-09-19T11:52:21.265Z,15.63
2017-09-19T11:54:51.784Z,15.60
2017-09-19T11:57:22.114Z,16.00
2017-09-19T11:59:52.662Z,16.13
2017-09-19T12:02:23.056Z,12.63
2017-09-19T12:04:54.160Z,12.77
2017-09-19T12:07:24.797Z,14.50
2017-09-19T12:09:55.362Z,13.90
2017-09-19T12:12:26.565Z,14.60
2017-09-19T12:14:57.012Z,14.83
2017-09-19T12:17:27.430Z,15.70
2017-09-19T12:19:58.066Z,14.77
2017-09-19T12:22:29.017Z,18.23
2017-09-19T12:24:59.481Z,18.60
2017-09-19T12:27:29.940Z,18.00
2017-09-19T12:30:00.584Z,18.30
2017-09-19T12:32:31.281Z,18.57
2017-09-19T12:35:01.956Z,17.00
2017-09-19T12:37:32.559Z,15.00
2017-09-19T12:40:04.754Z,18.03
2017-09-19T12:42:37.917Z,17.93
2017-09-19T12:45:08.717Z,18.40
2017-09-19T12:47:39.305Z,20.80
2017-09-19T12:50:11.182Z,19.93
2017-09-19T12:52:43.282Z,17.93
2017-09-19T12:55:13.622Z,18.00
2017-09-19T12:57:44.541Z,18.57
2017-09-19T13:00:15.054Z,17.03
2017-09-19T13:02:45.542Z,17.27
2017-09-19T13:05:16.035Z,18.43
2017-09-19T13:07:46.987Z,16.90
2017-09-19T13:10:17.321Z,18.97
2017-09-19T13:12:47.846Z,14.70
2017-09-19T13:15:18.356Z,15.10
2017-09-19T13:17:48.849Z,15.73
2017-09-19T13:20:20.239Z,16.00
2017-09-19T13:22:50.733Z,18.03
2017-09-19T13:25:22.248Z,17.63
2017-09-19T13:27:52.772Z,14.40
2017-09-19T13:30:23.528Z,13.67
2017-09-19T13:34:03.960Z,14.90
2017-09-19T13:36:34.598Z,13.80
2017-09-19T13:39:05.831Z,12.80
2017-09-19T13:41:36.265Z,14.30
2017-09-19T13:44:06.692Z,12.90
2017-09-19T13:46:37.329Z,12.07
2017-09-19T13:49:07.793Z,13.17
2017-09-19T13:51:39.134Z,12.73
2017-09-19T13:54:09.563Z,13.20
2017-09-19T13:56:39.876Z,13.77
2017-09-19T13:59:10.889Z,14.37
2017-09-19T14:01:41.532Z,15.30
2017-09-19T14:04:12.515Z,14.50
2017-09-19T14:06:43.033Z,14.93
2017-09-19T14:09:14.676Z,17.10
2017-09-19T14:11:45.120Z,16.83
2017-09-19T14:14:15.526Z,14.27
2017-09-19T14:16:46.380Z,12.30
2017-09-19T14:19:17.658Z,13.40
2017-09-19T14:21:48.348Z,14.13
2017-09-19T14:24:19.735Z,12.20
2017-09-19T14:26:50.222Z,15.40
2017-09-19T14:29:20.870Z,15.80
2017-09-19T14:31:52.321Z,14.97
2017-09-19T14:34:24.072Z,16.10
2017-09-19T14:36:56.159Z,14.00
2017-09-19T14:39:26.458Z,12.10
2017-09-19T14:41:57.994Z,11.53
2017-09-19T14:44:28.462Z,12.63
2017-09-19T14:46:58.965Z,12.87
2017-09-19T14:49:31.402Z,13.00
2017-09-19T14:52:02.374Z,10.40
2017-09-19T14:54:34.641Z,12.50
2017-09-19T14:57:04.991Z,11.30
2017-09-19T14:59:40.635Z,10.80
2017-09-19T15:02:14.866Z,11.70
2017-09-19T15:04:45.461Z,11.80
2017-09-19T15:07:15.936Z,12.20
2017-09-19T15:09:46.579Z,12.30
2017-09-19T15:12:18.201Z,12.13
2017-09-19T15:14:48.607Z,10.23
2017-09-19T15:17:19.902Z,9.27
2017-09-19T15:19:50.249Z,9.97
2017-09-19T15:22:21.203Z,10.60
2017-09-19T15:24:51.638Z,10.93
2017-09-19T15:27:24.612Z,9.73
2017-09-19T15:29:55.252Z,9.97
2017-09-19T15:32:26.668Z,9.93
2017-09-19T15:34:57.161Z,8.73
2017-09-19T15:37:27.561Z,9.70
2017-09-19T15:39:58.190Z,9.63
2017-09-19T15:42:30.069Z,9.60
2017-09-19T15:45:00.842Z,9.97
2017-09-19T15:47:31.232Z,9.87
2017-09-19T15:50:01.741Z,11.80
2017-09-19T15:52:34.515Z,10.73
2017-09-19T15:55:05.055Z,12.87
2017-09-19T15:57:36.185Z,11.70
2017-09-19T16:00:10.334Z,12.90
2017-09-19T16:02:41.577Z,9.90
2017-09-19T16:05:12.074Z,11.43
2017-09-19T16:07:43.370Z,12.80
2017-09-19T16:10:13.801Z,11.07
2017-09-19T16:12:46.016Z,11.40
2017-09-19T16:15:19.064Z,14.77
2017-09-19T16:17:49.685Z,13.47
2017-09-19T16:20:21.196Z,11.63
2017-09-19T16:22:53.307Z,13.20
2017-09-19T16:25:24.110Z,12.10
2017-09-19T16:27:54.562Z,10.40
2017-09-19T16:30:24.927Z,14.23
2017-09-19T16:32:56.475Z,13.53
2017-09-19T16:35:27.166Z,15.43
2017-09-19T16:37:57.698Z,14.50
2017-09-19T16:40:28.238Z,15.23
2017-09-19T16:42:59.336Z,15.70
2017-09-19T16:45:30.106Z,13.90
2017-09-19T16:48:00.630Z,14.77
2017-09-19T16:50:31.518Z,16.63
2017-09-19T16:53:02.380Z,17.03
2017-09-19T16:55:33.157Z,16.10
2017-09-19T16:58:03.936Z,16.93
2017-09-19T17:00:36.114Z,14.90
2017-09-19T17:03:07.914Z,10.10
2017-09-19T17:05:38.306Z,13.90
2017-09-19T17:08:09.298Z,18.33
2017-09-19T17:10:41.512Z,15.70
2017-09-19T17:13:12.355Z,14.60
2017-09-19T17:15:43.490Z,14.30
2017-09-19T17:18:14.430Z,15.73
2017-09-19T17:20:48.097Z,17.80
2017-09-19T17:23:19.254Z,14.10
2017-09-19T17:25:54.151Z,18.23
2017-09-19T17:28:25.072Z,17.70
2017-09-19T17:30:58.775Z,18.00
2017-09-19T17:33:31.524Z,15.80
2017-09-19T17:36:03.108Z,18.57
2017-09-19T17:38:33.821Z,15.40
2017-09-19T17:41:05.907Z,14.77
2017-09-19T17:43:37.201Z,14.30
2017-09-19T17:46:07.897Z,16.90
2017-09-19T17:48:38.671Z,18.13
2017-09-19T17:51:09.930Z,15.80
2017-09-19T17:53:40.453Z,15.87
2017-09-19T17:56:11.622Z,16.90
2017-09-19T17:58:42.896Z,17.37
2017-09-19T18:01:13.466Z,17.10
2017-09-19T18:03:46.823Z,18.50
2017-09-19T18:06:18.243Z,18.67
2017-09-19T18:08:58.008Z,15.40
2017-09-19T18:11:39.947Z,18.57
2017-09-19T18:14:22.943Z,15.93
2017-09-19T18:17:04.394Z,16.30
2017-09-19T18:19:36.284Z,19.90
2017-09-19T18:22:10.774Z,17.17
2017-09-19T18:24:45.858Z,15.20
2017-09-19T18:27:16.987Z,15.57
2017-09-19T18:29:48.580Z,17.40
2017-09-19T18:32:26.354Z,15.10
2017-09-19T18:35:10.321Z,14.30
2017-09-19T18:37:50.556Z,17.67
2017-09-19T18:40:30.936Z,18.37
2017-09-19T18:43:03.989Z,17.60
2017-09-19T18:45:35.358Z,16.83
2017-09-19T18:48:07.245Z,17.60
2017-09-19T18:50:38.630Z,17.00
2017-09-19T18:53:09.202Z,18.47
2017-09-19T18:55:41.444Z,16.73
2017-09-19T18:58:13.692Z,16.37
2017-09-19T19:00:44.403Z,19.23
2017-09-19T19:03:16.823Z,19.50
2017-09-19T19:05:47.280Z,16.40
2017-09-19T19:08:18.283Z,16.63
2017-09-19T19:10:49.395Z,18.37
2017-09-19T19:13:20.886Z,19.77
2017-09-19T19:15:51.479Z,19.80
2017-09-19T19:18:22.675Z,19.00
2017-09-19T19:20:53.782Z,20.97
2017-09-19T19:23:24.605Z,18.40
2017-09-19T19:25:55.632Z,16.17
2017-09-19T19:28:26.103Z,17.27
2017-09-19T19:30:59.404Z,16.70
2017-09-19T19:33:36.391Z,17.70
2017-09-19T19:36:09.194Z,19.83
2017-09-19T19:38:40.492Z,16.67
2017-09-19T19:41:11.094Z,22.67
2017-09-19T19:43:42.206Z,18.13
2017-09-19T19:46:12.760Z,19.53
2017-09-19T19:48:43.615Z,22.00
2017-09-19T19:51:14.341Z,17.63
2017-09-19T19:53:45.812Z,18.37
2017-09-19T19:56:16.543Z,22.87
2017-09-19T19:58:47.400Z,19.57
2017-09-19T20:01:18.810Z,19.27
2017-09-19T20:03:50.218Z,21.80
2017-09-19T20:06:20.669Z,24.10
2017-09-19T20:08:51.536Z,18.10
2017-09-19T20:11:23.135Z,18.87
2017-09-19T20:14:00.458Z,20.40
2017-09-19T20:16:33.773Z,19.87
2017-09-19T20:19:04.651Z,18.93
2017-09-19T20:21:35.163Z,18.73
2017-09-19T20:24:06.232Z,20.47
2017-09-19T20:26:37.872Z,19.10
2017-09-19T20:29:08.387Z,19.47
2017-09-19T20:31:38.865Z,20.73
2017-09-19T20:34:10.222Z,19.80
2017-09-19T20:36:40.971Z,16.47
2017-09-19T20:39:11.509Z,17.33
2017-09-19T20:41:41.969Z,22.67
2017-09-19T20:44:12.773Z,21.93
2017-09-19T20:46:45.007Z,21.40
2017-09-19T20:49:16.593Z,19.90
2017-09-19T20:51:47.633Z,21.63
2017-09-19T20:54:19.170Z,17.93
2017-09-19T20:56:49.829Z,18.57
2017-09-19T20:59:20.450Z,17.63
2017-09-19T21:01:51.345Z,19.83
2017-09-19T21:04:27.309Z,17.10
2017-09-19T21:07:03.990Z,19.83
2017-09-19T21:09:39.603Z,20.50
2017-09-19T21:12:15.192Z,18.23
2017-09-19T21:14:51.443Z,17.20
2017-09-19T21:17:28.096Z,20.33
2017-09-19T21:19:58.165Z,18.30
2017-09-19T21:22:28.820Z,15.80
2017-09-19T21:24:59.716Z,17.30
2017-09-19T21:27:31.125Z,15.17
2017-09-19T21:30:02.155Z,12.83
2017-09-19T21:32:32.539Z,15.50
2017-09-19T21:35:03.098Z,14.43
2017-09-19T21:37:33.965Z,18.97
2017-09-19T21:40:05.050Z,14.60
2017-09-19T21:42:37.229Z,16.73
2017-09-19T21:45:08.163Z,17.17
2017-09-19T21:47:38.842Z,18.67
2017-09-19T21:50:09.833Z,18.33
2017-09-19T21:52:40.104Z,16.77
2017-09-19T21:55:11.965Z,20.80
2017-09-19T21:57:43.413Z,14.90
2017-09-19T22:00:14.147Z,13.87
2017-09-19T22:02:45.401Z,15.63
2017-09-19T22:05:18.324Z,16.17
2017-09-19T22:07:49.266Z,16.00
2017-09-19T22:10:19.954Z,13.60
2017-09-19T22:12:50.689Z,15.03
2017-09-19T22:15:21.671Z,14.77
2017-09-19T22:18:00.287Z,15.40
2017-09-19T22:20:31.796Z,15.57
2017-09-19T22:23:03.238Z,17.40
2017-09-19T22:25:34.482Z,14.90
2017-09-19T22:28:05.108Z,13.53
2017-09-19T22:30:36.254Z,18.90
2017-09-19T22:33:07.811Z,18.60
2017-09-19T22:35:38.459Z,17.40
2017-09-19T22:38:09.051Z,16.50
2017-09-19T22:40:39.404Z,19.47
2017-09-19T22:43:11.150Z,14.80
2017-09-19T22:45:41.541Z,19.73
2017-09-19T22:48:12.002Z,18.73
2017-09-19T22:50:43.774Z,18.50
2017-09-19T22:53:14.649Z,17.47
2017-09-19T22:55:46.225Z,14.70
2017-09-19T22:58:17.091Z,16.50
2017-09-19T23:00:48.875Z,16.80
2017-09-19T23:03:19.895Z,17.67
2017-09-19T23:05:51.496Z,11.03
2017-09-19T23:08:22.479Z,10.60
2017-09-19T23:10:53.840Z,12.27
2017-09-19T23:13:25.337Z,15.57
2017-09-19T23:15:55.656Z,12.17
2017-09-19T23:18:25.989Z,11.10
2017-09-19T23:20:56.603Z,11.60
2017-09-19T23:23:27.483Z,16.47
2017-09-19T23:25:58.335Z,15.57
2017-09-19T23:28:29.127Z,14.90
2017-09-19T23:30:59.518Z,16.73
2017-09-19T23:33:30.365Z,11.50
2017-09-19T23:36:01.806Z,15.83
2017-09-19T23:38:32.509Z,18.27
2017-09-19T23:41:03.962Z,16.27
2017-09-19T23:43:35.895Z,18.20
2017-09-19T23:46:06.600Z,16.03
2017-09-19T23:48:37.733Z,17.67
2017-09-19T23:51:08.474Z,17.77
2017-09-19T23:53:39.882Z,16.33
2017-09-19T23:56:10.850Z,15.43
2017-09-19T23:58:41.285Z,11.93
